sensor_id;sensor_type;location;lat;lon;timestamp;temperature;humidity
44565;DHT22;30275;51.822;-0.326;2022-09-21T00:00:22;19.80;99.90
44565;DHT22;30275;51.822;-0.326;2022-09-21T00:02:48;19.80;99.90
44565;DHT22;30275;51.822;-0.326;2022-09-21T00:05:14;19.80;99.90
44565;DHT22;30275;51.822;-0.326;2022-09-21T00:07:40;19.70;99.90
44565;DHT22;30275;51.822;-0.326;2022-09-21T00:10:06;19.70;99.90
44565;DHT22;30275;51.822;-0.326;2022-09-21T00:12:31;19.70;99.90
44565;DHT22;30275;51.822;-0.326;2022-09-21T00:14:57;19.70;99.90
44565;DHT22;30275;51.822;-0.326;2022-09-21T00:17:23;19.70;99.90
44565;DHT22;30275;51.822;-0.326;2022-09-21T00:19:49;19.70;99.90
44565;DHT22;30275;51.822;-0.326;2022-09-21T00:22:14;19.80;99.90
44565;DHT22;30275;51.822;-0.326;2022-09-21T00:24:40;19.70;99.90
44565;DHT22;30275;51.822;-0.326;2022-09-21T00:27:05;19.70;99.90
44565;DHT22;30275;51.822;-0.326;2022-09-21T00:29:31;19.70;99.90
44565;DHT22;30275;51.822;-0.326;2022-09-21T00:31:57;19.70;99.90
44565;DHT22;30275;51.822;-0.326;2022-09-21T00:34:22;19.70;99.90
44565;DHT22;30275;51.822;-0.326;2022-09-21T00:36:49;19.70;99.90
44565;DHT22;30275;51.822;-0.326;2022-09-21T00:39:14;19.70;99.90
44565;DHT22;30275;51.822;-0.326;2022-09-21T00:41:40;19.70;99.90
44565;DHT22;30275;51.822;-0.326;2022-09-21T00:46:48;19.70;99.90
44565;DHT22;30275;51.822;-0.326;2022-09-21T00:49:16;19.70;99.90
44565;DHT22;30275;51.822;-0.326;2022-09-21T00:51:42;19.70;99.90
44565;DHT22;30275;51.822;-0.326;2022-09-21T00:54:15;19.70;99.90
44565;DHT22;30275;51.822;-0.326;2022-09-21T00:56:43;19.70;99.90
44565;DHT22;30275;51.822;-0.326;2022-09-21T00:59:10;19.70;99.90
44565;DHT22;30275;51.822;-0.326;2022-09-21T01:01:38;19.70;99.90
44565;DHT22;30275;51.822;-0.326;2022-09-21T01:04:04;19.70;99.90
44565;DHT22;30275;51.822;-0.326;2022-09-21T01:06:32;19.70;99.90
44565;DHT22;30275;51.822;-0.326;2022-09-21T01:08:59;19.70;99.90
44565;DHT22;30275;51.822;-0.326;2022-09-21T01:11:37;19.70;99.90
44565;DHT22;30275;51.822;-0.326;2022-09-21T01:16:55;19.70;99.90
44565;DHT22;30275;51.822;-0.326;2022-09-21T01:22:51;19.70;99.90
44565;DHT22;30275;51.822;-0.326;2022-09-21T01:25:37;19.70;99.90
44565;DHT22;30275;51.822;-0.326;2022-09-21T01:28:32;19.70;99.90
44565;DHT22;30275;51.822;-0.326;2022-09-21T01:31:03;19.70;99.90
44565;DHT22;30275;51.822;-0.326;2022-09-21T01:33:49;19.70;99.90
44565;DHT22;30275;51.822;-0.326;2022-09-21T01:36:21;19.70;99.90
44565;DHT22;30275;51.822;-0.326;2022-09-21T01:38:56;19.70;99.90
44565;DHT22;30275;51.822;-0.326;2022-09-21T01:41:26;19.70;99.90
44565;DHT22;30275;51.822;-0.326;2022-09-21T02:03:28;19.60;99.90
44565;DHT22;30275;51.822;-0.326;2022-09-21T02:05:58;19.70;99.90
44565;DHT22;30275;51.822;-0.326;2022-09-21T02:08:25;19.70;99.90
44565;DHT22;30275;51.822;-0.326;2022-09-21T02:10:52;19.70;99.90
44565;DHT22;30275;51.822;-0.326;2022-09-21T02:13:21;19.80;99.90
44565;DHT22;30275;51.822;-0.326;2022-09-21T02:24:22;19.80;99.90
44565;DHT22;30275;51.822;-0.326;2022-09-21T02:26:58;19.70;99.90
44565;DHT22;30275;51.822;-0.326;2022-09-21T02:32:21;19.70;99.90
44565;DHT22;30275;51.822;-0.326;2022-09-21T02:35:09;19.70;99.90
44565;DHT22;30275;51.822;-0.326;2022-09-21T02:37:52;19.70;99.90
44565;DHT22;30275;51.822;-0.326;2022-09-21T02:40:38;19.70;99.90
44565;DHT22;30275;51.822;-0.326;2022-09-21T02:43:14;19.70;99.90
44565;DHT22;30275;51.822;-0.326;2022-09-21T02:45:52;19.70;99.90
44565;DHT22;30275;51.822;-0.326;2022-09-21T02:48:28;19.70;99.90
44565;DHT22;30275;51.822;-0.326;2022-09-21T02:50:57;19.70;99.90
44565;DHT22;30275;51.822;-0.326;2022-09-21T02:53:26;19.70;99.90
44565;DHT22;30275;51.822;-0.326;2022-09-21T02:55:55;19.70;99.90
44565;DHT22;30275;51.822;-0.326;2022-09-21T02:58:23;19.70;99.90
44565;DHT22;30275;51.822;-0.326;2022-09-21T03:00:50;19.70;99.90
44565;DHT22;30275;51.822;-0.326;2022-09-21T03:03:21;19.70;99.90
44565;DHT22;30275;51.822;-0.326;2022-09-21T03:05:49;19.60;99.90
44565;DHT22;30275;51.822;-0.326;2022-09-21T03:08:18;19.70;99.90
44565;DHT22;30275;51.822;-0.326;2022-09-21T03:10:44;19.70;99.90
44565;DHT22;30275;51.822;-0.326;2022-09-21T03:13:11;19.70;99.90
44565;DHT22;30275;51.822;-0.326;2022-09-21T03:15:38;19.60;99.90
44565;DHT22;30275;51.822;-0.326;2022-09-21T03:18:07;19.60;99.90
44565;DHT22;30275;51.822;-0.326;2022-09-21T03:20:39;19.60;99.90
44565;DHT22;30275;51.822;-0.326;2022-09-21T03:23:06;19.60;99.90
44565;DHT22;30275;51.822;-0.326;2022-09-21T03:25:32;19.60;99.90
44565;DHT22;30275;51.822;-0.326;2022-09-21T03:27:57;19.60;99.90
44565;DHT22;30275;51.822;-0.326;2022-09-21T03:30:25;19.60;99.90
44565;DHT22;30275;51.822;-0.326;2022-09-21T03:32:52;19.60;99.90
44565;DHT22;30275;51.822;-0.326;2022-09-21T03:35:19;19.60;99.90
44565;DHT22;30275;51.822;-0.326;2022-09-21T03:37:46;19.60;99.90
44565;DHT22;30275;51.822;-0.326;2022-09-21T03:40:12;19.60;99.90
44565;DHT22;30275;51.822;-0.326;2022-09-21T03:42:39;19.60;99.90
44565;DHT22;30275;51.822;-0.326;2022-09-21T03:45:06;19.60;99.90
44565;DHT22;30275;51.822;-0.326;2022-09-21T03:47:32;19.60;99.90
44565;DHT22;30275;51.822;-0.326;2022-09-21T03:50:00;19.60;99.90
44565;DHT22;30275;51.822;-0.326;2022-09-21T03:52:26;19.50;99.90
44565;DHT22;30275;51.822;-0.326;2022-09-21T03:54:52;19.50;99.90
44565;DHT22;30275;51.822;-0.326;2022-09-21T03:57:19;19.50;99.90
44565;DHT22;30275;51.822;-0.326;2022-09-21T03:59:44;19.50;99.90
44565;DHT22;30275;51.822;-0.326;2022-09-21T04:02:10;19.60;99.90
44565;DHT22;30275;51.822;-0.326;2022-09-21T04:04:36;19.50;99.90
44565;DHT22;30275;51.822;-0.326;2022-09-21T04:07:01;19.50;99.90
44565;DHT22;30275;51.822;-0.326;2022-09-21T04:09:27;19.60;99.90
44565;DHT22;30275;51.822;-0.326;2022-09-21T04:11:53;19.60;99.90
44565;DHT22;30275;51.822;-0.326;2022-09-21T04:14:19;19.60;99.90
44565;DHT22;30275;51.822;-0.326;2022-09-21T04:16:45;19.60;99.90
44565;DHT22;30275;51.822;-0.326;2022-09-21T04:19:11;19.60;99.90
44565;DHT22;30275;51.822;-0.326;2022-09-21T04:21:37;19.50;99.90
44565;DHT22;30275;51.822;-0.326;2022-09-21T04:37:57;19.50;99.90
44565;DHT22;30275;51.822;-0.326;2022-09-21T04:40:22;19.60;99.90
44565;DHT22;30275;51.822;-0.326;2022-09-21T04:42:51;19.60;99.90
44565;DHT22;30275;51.822;-0.326;2022-09-21T04:45:21;19.70;99.90
44565;DHT22;30275;51.822;-0.326;2022-09-21T04:47:47;19.70;99.90
44565;DHT22;30275;51.822;-0.326;2022-09-21T05:03:40;19.60;99.90
44565;DHT22;30275;51.822;-0.326;2022-09-21T05:06:05;19.60;99.90
44565;DHT22;30275;51.822;-0.326;2022-09-21T05:08:32;19.60;99.90
44565;DHT22;30275;51.822;-0.326;2022-09-21T05:11:17;19.70;99.90
44565;DHT22;30275;51.822;-0.326;2022-09-21T05:13:47;19.70;99.90
44565;DHT22;30275;51.822;-0.326;2022-09-21T05:16:13;19.70;99.90
44565;DHT22;30275;51.822;-0.326;2022-09-21T05:18:39;19.60;99.90
44565;DHT22;30275;51.822;-0.326;2022-09-21T05:21:05;19.60;99.90
44565;DHT22;30275;51.822;-0.326;2022-09-21T05:23:32;19.60;99.90
44565;DHT22;30275;51.822;-0.326;2022-09-21T05:25:58;19.60;99.90
44565;DHT22;30275;51.822;-0.326;2022-09-21T05:28:25;19.60;99.90
44565;DHT22;30275;51.822;-0.326;2022-09-21T05:33:51;19.50;99.90
44565;DHT22;30275;51.822;-0.326;2022-09-21T05:36:48;19.50;99.90
44565;DHT22;30275;51.822;-0.326;2022-09-21T05:39:17;19.50;99.90
44565;DHT22;30275;51.822;-0.326;2022-09-21T05:41:43;19.40;99.90
44565;DHT22;30275;51.822;-0.326;2022-09-21T05:44:12;19.50;99.90
44565;DHT22;30275;51.822;-0.326;2022-09-21T05:46:41;19.50;99.90
44565;DHT22;30275;51.822;-0.326;2022-09-21T05:49:29;19.40;99.90
44565;DHT22;30275;51.822;-0.326;2022-09-21T05:55:25;19.50;99.90
44565;DHT22;30275;51.822;-0.326;2022-09-21T06:00:20;19.50;99.90
44565;DHT22;30275;51.822;-0.326;2022-09-21T06:02:53;19.50;99.90
44565;DHT22;30275;51.822;-0.326;2022-09-21T06:05:20;19.50;99.90
44565;DHT22;30275;51.822;-0.326;2022-09-21T06:07:46;19.50;99.90
44565;DHT22;30275;51.822;-0.326;2022-09-21T06:10:12;19.50;99.90
44565;DHT22;30275;51.822;-0.326;2022-09-21T06:12:39;19.50;99.90
44565;DHT22;30275;51.822;-0.326;2022-09-21T06:15:05;19.40;99.90
44565;DHT22;30275;51.822;-0.326;2022-09-21T06:17:32;19.40;99.90
44565;DHT22;30275;51.822;-0.326;2022-09-21T06:20:00;19.50;99.90
44565;DHT22;30275;51.822;-0.326;2022-09-21T06:22:27;19.40;99.90
44565;DHT22;30275;51.822;-0.326;2022-09-21T06:24:53;19.40;99.90
44565;DHT22;30275;51.822;-0.326;2022-09-21T06:27:18;19.40;99.90
44565;DHT22;30275;51.822;-0.326;2022-09-21T06:29:44;19.40;99.90
44565;DHT22;30275;51.822;-0.326;2022-09-21T06:32:10;19.40;99.90
44565;DHT22;30275;51.822;-0.326;2022-09-21T06:34:35;19.40;99.90
44565;DHT22;30275;51.822;-0.326;2022-09-21T06:37:02;19.40;99.90
44565;DHT22;30275;51.822;-0.326;2022-09-21T06:39:28;19.40;99.90
44565;DHT22;30275;51.822;-0.326;2022-09-21T06:41:53;19.40;99.90
44565;DHT22;30275;51.822;-0.326;2022-09-21T06:44:19;19.40;99.90
44565;DHT22;30275;51.822;-0.326;2022-09-21T06:46:45;19.40;99.90
44565;DHT22;30275;51.822;-0.326;2022-09-21T06:49:10;19.40;99.90
44565;DHT22;30275;51.822;-0.326;2022-09-21T06:51:36;19.40;99.90
44565;DHT22;30275;51.822;-0.326;2022-09-21T06:54:02;19.40;99.90
44565;DHT22;30275;51.822;-0.326;2022-09-21T06:56:27;19.40;99.80
44565;DHT22;30275;51.822;-0.326;2022-09-21T06:58:54;19.40;99.90
44565;DHT22;30275;51.822;-0.326;2022-09-21T07:01:20;19.40;99.80
44565;DHT22;30275;51.822;-0.326;2022-09-21T07:03:49;19.40;99.70
44565;DHT22;30275;51.822;-0.326;2022-09-21T07:06:15;19.40;99.70
44565;DHT22;30275;51.822;-0.326;2022-09-21T07:08:42;19.40;99.90
44565;DHT22;30275;51.822;-0.326;2022-09-21T07:11:08;19.40;99.70
44565;DHT22;30275;51.822;-0.326;2022-09-21T07:13:34;19.40;99.60
44565;DHT22;30275;51.822;-0.326;2022-09-21T07:16:06;19.40;99.60
44565;DHT22;30275;51.822;-0.326;2022-09-21T07:18:32;19.40;99.60
44565;DHT22;30275;51.822;-0.326;2022-09-21T07:21:08;19.30;99.50
44565;DHT22;30275;51.822;-0.326;2022-09-21T07:23:35;19.40;99.50
44565;DHT22;30275;51.822;-0.326;2022-09-21T07:26:03;19.40;99.50
44565;DHT22;30275;51.822;-0.326;2022-09-21T07:28:29;19.40;99.50
44565;DHT22;30275;51.822;-0.326;2022-09-21T07:30:56;19.40;99.50
44565;DHT22;30275;51.822;-0.326;2022-09-21T07:33:22;19.40;99.40
44565;DHT22;30275;51.822;-0.326;2022-09-21T07:35:54;19.40;99.40
44565;DHT22;30275;51.822;-0.326;2022-09-21T07:38:22;19.40;99.40
44565;DHT22;30275;51.822;-0.326;2022-09-21T07:40:49;19.40;99.40
44565;DHT22;30275;51.822;-0.326;2022-09-21T07:43:15;19.30;99.30
44565;DHT22;30275;51.822;-0.326;2022-09-21T07:45:41;19.40;99.30
44565;DHT22;30275;51.822;-0.326;2022-09-21T07:48:07;19.40;99.30
44565;DHT22;30275;51.822;-0.326;2022-09-21T07:50:35;19.40;99.20
44565;DHT22;30275;51.822;-0.326;2022-09-21T07:53:02;19.30;99.20
44565;DHT22;30275;51.822;-0.326;2022-09-21T07:55:28;19.40;99.20
44565;DHT22;30275;51.822;-0.326;2022-09-21T07:57:54;19.40;99.20
44565;DHT22;30275;51.822;-0.326;2022-09-21T08:00:38;19.40;99.20
44565;DHT22;30275;51.822;-0.326;2022-09-21T08:03:04;19.40;99.10
44565;DHT22;30275;51.822;-0.326;2022-09-21T08:05:31;19.40;99.10
44565;DHT22;30275;51.822;-0.326;2022-09-21T08:07:57;19.40;99.10
44565;DHT22;30275;51.822;-0.326;2022-09-21T08:10:24;19.40;99.00
44565;DHT22;30275;51.822;-0.326;2022-09-21T08:12:53;19.40;99.00
44565;DHT22;30275;51.822;-0.326;2022-09-21T08:15:18;19.40;99.00
44565;DHT22;30275;51.822;-0.326;2022-09-21T08:17:44;19.40;99.00
44565;DHT22;30275;51.822;-0.326;2022-09-21T08:20:10;19.40;98.90
44565;DHT22;30275;51.822;-0.326;2022-09-21T08:22:35;19.40;98.90
44565;DHT22;30275;51.822;-0.326;2022-09-21T08:25:01;19.40;98.80
44565;DHT22;30275;51.822;-0.326;2022-09-21T08:27:27;19.40;98.80
44565;DHT22;30275;51.822;-0.326;2022-09-21T08:29:53;19.40;98.80
44565;DHT22;30275;51.822;-0.326;2022-09-21T08:32:18;19.40;98.80
44565;DHT22;30275;51.822;-0.326;2022-09-21T08:34:44;19.40;98.70
44565;DHT22;30275;51.822;-0.326;2022-09-21T08:37:10;19.40;98.70
44565;DHT22;30275;51.822;-0.326;2022-09-21T08:39:36;19.40;98.70
44565;DHT22;30275;51.822;-0.326;2022-09-21T08:42:34;19.40;98.60
44565;DHT22;30275;51.822;-0.326;2022-09-21T08:45:04;19.40;98.60
44565;DHT22;30275;51.822;-0.326;2022-09-21T08:47:40;19.40;98.60
44565;DHT22;30275;51.822;-0.326;2022-09-21T08:50:36;19.40;98.60
44565;DHT22;30275;51.822;-0.326;2022-09-21T08:55:40;19.40;98.50
44565;DHT22;30275;51.822;-0.326;2022-09-21T08:58:32;19.40;98.50
44565;DHT22;30275;51.822;-0.326;2022-09-21T09:03:42;19.40;98.50
44565;DHT22;30275;51.822;-0.326;2022-09-21T09:12:09;19.50;98.40
44565;DHT22;30275;51.822;-0.326;2022-09-21T09:20:26;19.50;98.30
44565;DHT22;30275;51.822;-0.326;2022-09-21T09:23:04;19.50;98.30
44565;DHT22;30275;51.822;-0.326;2022-09-21T09:25:38;19.50;98.30
44565;DHT22;30275;51.822;-0.326;2022-09-21T09:28:32;19.50;98.30
44565;DHT22;30275;51.822;-0.326;2022-09-21T09:31:11;19.50;98.20
44565;DHT22;30275;51.822;-0.326;2022-09-21T09:36:32;19.50;98.20
44565;DHT22;30275;51.822;-0.326;2022-09-21T09:39:16;19.50;98.20
44565;DHT22;30275;51.822;-0.326;2022-09-21T09:44:55;19.50;98.20
44565;DHT22;30275;51.822;-0.326;2022-09-21T09:47:44;19.50;98.20
44565;DHT22;30275;51.822;-0.326;2022-09-21T09:50:28;19.50;98.10
44565;DHT22;30275;51.822;-0.326;2022-09-21T09:53:01;19.50;98.10
44565;DHT22;30275;51.822;-0.326;2022-09-21T09:58:03;19.50;98.10
44565;DHT22;30275;51.822;-0.326;2022-09-21T10:00:29;19.50;98.10
44565;DHT22;30275;51.822;-0.326;2022-09-21T10:02:58;19.50;98.10
44565;DHT22;30275;51.822;-0.326;2022-09-21T10:07:55;19.50;98.10
44565;DHT22;30275;51.822;-0.326;2022-09-21T10:10:34;19.50;98.10
44565;DHT22;30275;51.822;-0.326;2022-09-21T10:13:24;19.50;98.00
44565;DHT22;30275;51.822;-0.326;2022-09-21T10:15:55;19.50;98.00
44565;DHT22;30275;51.822;-0.326;2022-09-21T10:20:54;19.50;98.00
44565;DHT22;30275;51.822;-0.326;2022-09-21T10:23:21;19.50;98.00
44565;DHT22;30275;51.822;-0.326;2022-09-21T10:28:23;19.60;97.90
44565;DHT22;30275;51.822;-0.326;2022-09-21T10:30:49;19.60;97.90
44565;DHT22;30275;51.822;-0.326;2022-09-21T10:33:31;19.60;97.90
44565;DHT22;30275;51.822;-0.326;2022-09-21T10:35:56;19.60;97.90
44565;DHT22;30275;51.822;-0.326;2022-09-21T10:38:25;19.60;97.80
44565;DHT22;30275;51.822;-0.326;2022-09-21T10:40:54;19.60;97.80
44565;DHT22;30275;51.822;-0.326;2022-09-21T10:43:24;19.60;98.10
44565;DHT22;30275;51.822;-0.326;2022-09-21T10:45:55;19.60;97.80
44565;DHT22;30275;51.822;-0.326;2022-09-21T10:48:23;19.60;97.80
44565;DHT22;30275;51.822;-0.326;2022-09-21T10:50:50;19.60;97.80
44565;DHT22;30275;51.822;-0.326;2022-09-21T10:53:36;19.60;97.80
44565;DHT22;30275;51.822;-0.326;2022-09-21T10:56:16;19.60;97.80
44565;DHT22;30275;51.822;-0.326;2022-09-21T10:59:24;19.70;97.80
44565;DHT22;30275;51.822;-0.326;2022-09-21T11:01:52;19.70;97.80
44565;DHT22;30275;51.822;-0.326;2022-09-21T11:04:42;19.70;97.80
44565;DHT22;30275;51.822;-0.326;2022-09-21T11:07:24;19.70;97.80
44565;DHT22;30275;51.822;-0.326;2022-09-21T11:15:54;19.70;97.70
44565;DHT22;30275;51.822;-0.326;2022-09-21T11:24:53;19.70;97.70
44565;DHT22;30275;51.822;-0.326;2022-09-21T11:27:26;19.80;97.70
44565;DHT22;30275;51.822;-0.326;2022-09-21T11:35:46;19.80;97.60
44565;DHT22;30275;51.822;-0.326;2022-09-21T11:38:17;19.80;97.60
44565;DHT22;30275;51.822;-0.326;2022-09-21T11:41:08;19.80;97.60
44565;DHT22;30275;51.822;-0.326;2022-09-21T11:43:44;19.90;97.50
44565;DHT22;30275;51.822;-0.326;2022-09-21T11:46:23;19.90;97.50
44565;DHT22;30275;51.822;-0.326;2022-09-21T11:49:31;19.90;97.50
44565;DHT22;30275;51.822;-0.326;2022-09-21T11:57:49;20.00;97.40
44565;DHT22;30275;51.822;-0.326;2022-09-21T12:00:19;20.00;97.40
44565;DHT22;30275;51.822;-0.326;2022-09-21T12:05:57;20.10;97.40
44565;DHT22;30275;51.822;-0.326;2022-09-21T12:19:24;20.30;97.30
44565;DHT22;30275;51.822;-0.326;2022-09-21T12:22:02;20.30;97.20
44565;DHT22;30275;51.822;-0.326;2022-09-21T12:24:35;20.30;97.20
44565;DHT22;30275;51.822;-0.326;2022-09-21T12:27:28;20.30;97.20
44565;DHT22;30275;51.822;-0.326;2022-09-21T12:30:17;20.30;97.20
44565;DHT22;30275;51.822;-0.326;2022-09-21T12:33:10;20.20;97.20
44565;DHT22;30275;51.822;-0.326;2022-09-21T12:35:46;20.20;97.10
44565;DHT22;30275;51.822;-0.326;2022-09-21T12:38:29;20.20;97.10
44565;DHT22;30275;51.822;-0.326;2022-09-21T12:41:19;20.20;97.10
44565;DHT22;30275;51.822;-0.326;2022-09-21T12:46:49;20.20;97.10
44565;DHT22;30275;51.822;-0.326;2022-09-21T12:49:20;20.20;97.10
44565;DHT22;30275;51.822;-0.326;2022-09-21T12:51:51;20.20;97.10
44565;DHT22;30275;51.822;-0.326;2022-09-21T12:54:34;20.20;97.10
44565;DHT22;30275;51.822;-0.326;2022-09-21T13:00:02;20.20;97.10
44565;DHT22;30275;51.822;-0.326;2022-09-21T13:02:40;20.20;97.10
44565;DHT22;30275;51.822;-0.326;2022-09-21T13:07:58;20.20;97.10
44565;DHT22;30275;51.822;-0.326;2022-09-21T13:12:59;20.20;97.10
44565;DHT22;30275;51.822;-0.326;2022-09-21T13:15:29;20.20;97.10
44565;DHT22;30275;51.822;-0.326;2022-09-21T13:18:01;20.20;97.00
44565;DHT22;30275;51.822;-0.326;2022-09-21T13:20:33;20.20;97.20
44565;DHT22;30275;51.822;-0.326;2022-09-21T13:23:00;20.20;97.00
44565;DHT22;30275;51.822;-0.326;2022-09-21T13:25:28;20.20;97.00
44565;DHT22;30275;51.822;-0.326;2022-09-21T13:43:48;20.30;96.90
44565;DHT22;30275;51.822;-0.326;2022-09-21T13:51:33;20.30;96.90
44565;DHT22;30275;51.822;-0.326;2022-09-21T13:54:01;20.30;96.90
44565;DHT22;30275;51.822;-0.326;2022-09-21T13:56:27;20.40;96.90
44565;DHT22;30275;51.822;-0.326;2022-09-21T13:58:57;20.30;96.90
44565;DHT22;30275;51.822;-0.326;2022-09-21T14:01:34;20.40;96.80
44565;DHT22;30275;51.822;-0.326;2022-09-21T14:04:15;20.40;96.80
44565;DHT22;30275;51.822;-0.326;2022-09-21T14:06:44;20.40;97.00
44565;DHT22;30275;51.822;-0.326;2022-09-21T14:12:04;20.50;96.70
44565;DHT22;30275;51.822;-0.326;2022-09-21T14:14:36;20.50;96.70
44565;DHT22;30275;51.822;-0.326;2022-09-21T14:17:04;20.50;96.60
44565;DHT22;30275;51.822;-0.326;2022-09-21T14:32:28;20.60;96.50
44565;DHT22;30275;51.822;-0.326;2022-09-21T14:35:00;20.60;96.50
44565;DHT22;30275;51.822;-0.326;2022-09-21T14:37:36;20.60;96.50
44565;DHT22;30275;51.822;-0.326;2022-09-21T14:40:15;20.60;96.20
44565;DHT22;30275;51.822;-0.326;2022-09-21T14:42:42;20.60;95.90
44565;DHT22;30275;51.822;-0.326;2022-09-21T14:45:14;20.60;94.90
44565;DHT22;30275;51.822;-0.326;2022-09-21T14:53:02;20.60;95.10
44565;DHT22;30275;51.822;-0.326;2022-09-21T14:56:16;20.60;94.90
44565;DHT22;30275;51.822;-0.326;2022-09-21T14:59:15;20.60;94.80
44565;DHT22;30275;51.822;-0.326;2022-09-21T15:01:37;20.60;94.40
44565;DHT22;30275;51.822;-0.326;2022-09-21T15:04:35;20.60;94.80
44565;DHT22;30275;51.822;-0.326;2022-09-21T15:16:25;20.60;94.10
44565;DHT22;30275;51.822;-0.326;2022-09-21T15:21:49;20.60;93.80
44565;DHT22;30275;51.822;-0.326;2022-09-21T15:26:49;20.60;93.30
44565;DHT22;30275;51.822;-0.326;2022-09-21T15:29:27;20.60;92.90
44565;DHT22;30275;51.822;-0.326;2022-09-21T15:31:53;20.60;92.60
44565;DHT22;30275;51.822;-0.326;2022-09-21T15:34:20;20.60;92.60
44565;DHT22;30275;51.822;-0.326;2022-09-21T15:36:47;20.60;92.90
44565;DHT22;30275;51.822;-0.326;2022-09-21T15:39:29;20.60;92.70
44565;DHT22;30275;51.822;-0.326;2022-09-21T15:42:16;20.60;92.10
44565;DHT22;30275;51.822;-0.326;2022-09-21T15:44:44;20.60;92.00
44565;DHT22;30275;51.822;-0.326;2022-09-21T15:47:15;20.60;91.80
44565;DHT22;30275;51.822;-0.326;2022-09-21T15:49:41;20.60;92.00
44565;DHT22;30275;51.822;-0.326;2022-09-21T15:54:47;20.60;91.80
44565;DHT22;30275;51.822;-0.326;2022-09-21T15:59:53;20.60;91.80
44565;DHT22;30275;51.822;-0.326;2022-09-21T16:02:23;20.60;92.40
44565;DHT22;30275;51.822;-0.326;2022-09-21T16:04:50;20.60;92.20
44565;DHT22;30275;51.822;-0.326;2022-09-21T16:09:57;20.60;91.80
44565;DHT22;30275;51.822;-0.326;2022-09-21T16:12:50;20.60;91.80
44565;DHT22;30275;51.822;-0.326;2022-09-21T16:15:22;20.50;91.60
44565;DHT22;30275;51.822;-0.326;2022-09-21T16:18:02;20.50;91.50
44565;DHT22;30275;51.822;-0.326;2022-09-21T16:20:46;20.50;91.50
44565;DHT22;30275;51.822;-0.326;2022-09-21T16:23:18;20.50;91.50
44565;DHT22;30275;51.822;-0.326;2022-09-21T16:26:01;20.40;91.50
44565;DHT22;30275;51.822;-0.326;2022-09-21T16:30:55;20.40;92.20
44565;DHT22;30275;51.822;-0.326;2022-09-21T16:38:42;20.40;92.30
44565;DHT22;30275;51.822;-0.326;2022-09-21T16:41:08;20.40;92.30
44565;DHT22;30275;51.822;-0.326;2022-09-21T16:43:35;20.40;92.30
44565;DHT22;30275;51.822;-0.326;2022-09-21T16:46:04;20.30;92.20
44565;DHT22;30275;51.822;-0.326;2022-09-21T16:48:32;20.40;92.30
44565;DHT22;30275;51.822;-0.326;2022-09-21T16:50:58;20.30;92.20
44565;DHT22;30275;51.822;-0.326;2022-09-21T16:53:24;20.30;92.30
44565;DHT22;30275;51.822;-0.326;2022-09-21T16:55:50;20.30;92.20
44565;DHT22;30275;51.822;-0.326;2022-09-21T16:58:18;20.30;92.10
44565;DHT22;30275;51.822;-0.326;2022-09-21T17:00:50;20.20;92.20
44565;DHT22;30275;51.822;-0.326;2022-09-21T17:03:17;20.20;92.00
44565;DHT22;30275;51.822;-0.326;2022-09-21T17:05:43;20.20;92.10
44565;DHT22;30275;51.822;-0.326;2022-09-21T17:08:10;20.20;92.20
44565;DHT22;30275;51.822;-0.326;2022-09-21T17:10:42;20.20;92.20
44565;DHT22;30275;51.822;-0.326;2022-09-21T17:13:08;20.20;92.30
44565;DHT22;30275;51.822;-0.326;2022-09-21T17:15:35;20.20;92.40
44565;DHT22;30275;51.822;-0.326;2022-09-21T17:18:02;20.20;92.40
44565;DHT22;30275;51.822;-0.326;2022-09-21T17:20:38;20.10;92.50
44565;DHT22;30275;51.822;-0.326;2022-09-21T17:23:05;20.20;92.90
44565;DHT22;30275;51.822;-0.326;2022-09-21T17:25:31;20.20;93.40
44565;DHT22;30275;51.822;-0.326;2022-09-21T17:27:58;20.20;93.80
44565;DHT22;30275;51.822;-0.326;2022-09-21T17:30:25;20.20;93.70
44565;DHT22;30275;51.822;-0.326;2022-09-21T17:32:52;20.30;93.60
44565;DHT22;30275;51.822;-0.326;2022-09-21T17:35:32;20.20;93.50
44565;DHT22;30275;51.822;-0.326;2022-09-21T17:37:58;20.20;93.60
44565;DHT22;30275;51.822;-0.326;2022-09-21T17:40:25;20.30;94.10
44565;DHT22;30275;51.822;-0.326;2022-09-21T17:42:53;20.30;94.20
44565;DHT22;30275;51.822;-0.326;2022-09-21T17:45:48;20.30;94.30
44565;DHT22;30275;51.822;-0.326;2022-09-21T17:48:19;20.30;94.50
44565;DHT22;30275;51.822;-0.326;2022-09-21T17:50:45;20.30;94.60
44565;DHT22;30275;51.822;-0.326;2022-09-21T17:53:12;20.30;94.60
44565;DHT22;30275;51.822;-0.326;2022-09-21T17:55:58;20.30;94.60
44565;DHT22;30275;51.822;-0.326;2022-09-21T17:58:46;20.30;94.60
44565;DHT22;30275;51.822;-0.326;2022-09-21T18:01:30;20.30;95.40
44565;DHT22;30275;51.822;-0.326;2022-09-21T18:03:56;20.40;95.70
44565;DHT22;30275;51.822;-0.326;2022-09-21T18:06:22;20.40;95.50
44565;DHT22;30275;51.822;-0.326;2022-09-21T18:08:48;20.40;95.50
44565;DHT22;30275;51.822;-0.326;2022-09-21T18:22:29;20.50;95.90
44565;DHT22;30275;51.822;-0.326;2022-09-21T18:24:59;20.50;95.90
44565;DHT22;30275;51.822;-0.326;2022-09-21T18:27:25;20.50;95.80
44565;DHT22;30275;51.822;-0.326;2022-09-21T18:29:51;20.50;96.20
44565;DHT22;30275;51.822;-0.326;2022-09-21T18:32:57;20.50;97.80
44565;DHT22;30275;51.822;-0.326;2022-09-21T18:46:11;20.60;99.90
44565;DHT22;30275;51.822;-0.326;2022-09-21T18:49:08;20.60;99.90
44565;DHT22;30275;51.822;-0.326;2022-09-21T18:54:36;20.60;99.90
44565;DHT22;30275;51.822;-0.326;2022-09-21T18:57:11;20.60;99.90
44565;DHT22;30275;51.822;-0.326;2022-09-21T18:59:38;20.60;99.90
44565;DHT22;30275;51.822;-0.326;2022-09-21T19:02:12;20.60;99.90
44565;DHT22;30275;51.822;-0.326;2022-09-21T19:04:41;20.50;99.90
44565;DHT22;30275;51.822;-0.326;2022-09-21T19:07:41;20.50;99.90
44565;DHT22;30275;51.822;-0.326;2022-09-21T19:10:11;20.50;99.90
44565;DHT22;30275;51.822;-0.326;2022-09-21T19:12:57;20.50;99.80
44565;DHT22;30275;51.822;-0.326;2022-09-21T19:15:57;20.50;99.80
44565;DHT22;30275;51.822;-0.326;2022-09-21T19:18:42;20.50;99.70
44565;DHT22;30275;51.822;-0.326;2022-09-21T19:24:25;20.50;99.50
44565;DHT22;30275;51.822;-0.326;2022-09-21T19:30:15;20.50;99.40
44565;DHT22;30275;51.822;-0.326;2022-09-21T19:32:44;20.50;99.40
44565;DHT22;30275;51.822;-0.326;2022-09-21T19:35:25;20.40;99.10
44565;DHT22;30275;51.822;-0.326;2022-09-21T19:37:53;20.40;99.10
44565;DHT22;30275;51.822;-0.326;2022-09-21T19:40:22;20.40;99.10
44565;DHT22;30275;51.822;-0.326;2022-09-21T19:47:53;20.40;98.90
44565;DHT22;30275;51.822;-0.326;2022-09-21T19:50:35;20.40;98.70
44565;DHT22;30275;51.822;-0.326;2022-09-21T19:53:01;20.40;98.70
44565;DHT22;30275;51.822;-0.326;2022-09-21T19:55:46;20.40;98.60
44565;DHT22;30275;51.822;-0.326;2022-09-21T19:58:32;20.30;98.50
44565;DHT22;30275;51.822;-0.326;2022-09-21T20:01:18;20.30;98.50
44565;DHT22;30275;51.822;-0.326;2022-09-21T20:03:46;20.40;98.90
44565;DHT22;30275;51.822;-0.326;2022-09-21T20:06:23;20.30;99.20
44565;DHT22;30275;51.822;-0.326;2022-09-21T20:08:52;20.30;99.10